sensor_id;sensor_type;location;lat;lon;timestamp;temperature;humidity
7738;DHT22;29398;45.328;5.558;2024-03-25T00:00:57;7.00;86.20
7738;DHT22;29398;45.328;5.558;2024-03-25T00:01:59;7.00;85.90
7738;DHT22;29398;45.328;5.558;2024-03-25T00:03:00;7.00;85.90
7738;DHT22;29398;45.328;5.558;2024-03-25T00:04:01;7.00;85.90
7738;DHT22;29398;45.328;5.558;2024-03-25T00:05:04;7.00;86.70
7738;DHT22;29398;45.328;5.558;2024-03-25T00:06:08;7.00;86.30
7738;DHT22;29398;45.328;5.558;2024-03-25T00:07:09;7.00;87.70
7738;DHT22;29398;45.328;5.558;2024-03-25T00:08:10;6.90;86.50
7738;DHT22;29398;45.328;5.558;2024-03-25T00:09:11;6.80;87.10
7738;DHT22;29398;45.328;5.558;2024-03-25T00:10:14;6.80;86.80
7738;DHT22;29398;45.328;5.558;2024-03-25T00:11:15;6.80;87.00
7738;DHT22;29398;45.328;5.558;2024-03-25T00:12:17;6.80;86.90
7738;DHT22;29398;45.328;5.558;2024-03-25T00:13:18;6.90;87.00
7738;DHT22;29398;45.328;5.558;2024-03-25T00:14:21;6.90;86.90
7738;DHT22;29398;45.328;5.558;2024-03-25T00:15:22;6.90;88.00
7738;DHT22;29398;45.328;5.558;2024-03-25T00:16:24;6.80;87.30
7738;DHT22;29398;45.328;5.558;2024-03-25T00:17:26;6.70;87.50
7738;DHT22;29398;45.328;5.558;2024-03-25T00:18:28;6.70;88.10
7738;DHT22;29398;45.328;5.558;2024-03-25T00:19:29;6.70;88.60
7738;DHT22;29398;45.328;5.558;2024-03-25T00:20:32;6.70;87.80
7738;DHT22;29398;45.328;5.558;2024-03-25T00:21:34;6.80;87.60
7738;DHT22;29398;45.328;5.558;2024-03-25T00:22:36;6.70;88.50
7738;DHT22;29398;45.328;5.558;2024-03-25T00:23:37;6.70;87.80
7738;DHT22;29398;45.328;5.558;2024-03-25T00:24:38;6.70;88.20
7738;DHT22;29398;45.328;5.558;2024-03-25T00:25:39;6.70;88.20
7738;DHT22;29398;45.328;5.558;2024-03-25T00:26:41;6.70;87.80
7738;DHT22;29398;45.328;5.558;2024-03-25T00:27:42;6.70;87.40
7738;DHT22;29398;45.328;5.558;2024-03-25T00:28:43;6.70;88.00
7738;DHT22;29398;45.328;5.558;2024-03-25T00:29:45;6.70;88.00
7738;DHT22;29398;45.328;5.558;2024-03-25T00:30:46;6.60;87.90
7738;DHT22;29398;45.328;5.558;2024-03-25T00:31:47;6.60;87.80
7738;DHT22;29398;45.328;5.558;2024-03-25T00:32:48;6.80;90.50
7738;DHT22;29398;45.328;5.558;2024-03-25T00:33:51;6.70;88.50
7738;DHT22;29398;45.328;5.558;2024-03-25T00:34:52;6.90;92.70
7738;DHT22;29398;45.328;5.558;2024-03-25T00:35:54;6.90;92.10
7738;DHT22;29398;45.328;5.558;2024-03-25T00:36:55;6.90;92.50
7738;DHT22;29398;45.328;5.558;2024-03-25T00:37:58;6.90;93.00
7738;DHT22;29398;45.328;5.558;2024-03-25T00:38:59;6.90;92.50
7738;DHT22;29398;45.328;5.558;2024-03-25T00:40:00;6.90;92.20
7738;DHT22;29398;45.328;5.558;2024-03-25T00:41:01;6.90;91.30
7738;DHT22;29398;45.328;5.558;2024-03-25T00:42:04;6.90;90.90
7738;DHT22;29398;45.328;5.558;2024-03-25T00:44:06;7.00;92.10
7738;DHT22;29398;45.328;5.558;2024-03-25T00:45:08;6.80;87.30
7738;DHT22;29398;45.328;5.558;2024-03-25T00:46:10;6.90;87.40
7738;DHT22;29398;45.328;5.558;2024-03-25T00:47:12;6.90;88.10
7738;DHT22;29398;45.328;5.558;2024-03-25T00:48:13;7.10;91.80
7738;DHT22;29398;45.328;5.558;2024-03-25T00:49:16;6.90;89.20
7738;DHT22;29398;45.328;5.558;2024-03-25T00:50:17;7.00;93.50
7738;DHT22;29398;45.328;5.558;2024-03-25T00:52:21;6.90;87.90
7738;DHT22;29398;45.328;5.558;2024-03-25T00:53:23;6.80;87.40
7738;DHT22;29398;45.328;5.558;2024-03-25T00:54:24;6.80;87.10
7738;DHT22;29398;45.328;5.558;2024-03-25T00:55:25;6.80;87.00
7738;DHT22;29398;45.328;5.558;2024-03-25T00:56:26;6.70;86.80
7738;DHT22;29398;45.328;5.558;2024-03-25T00:57:28;6.80;88.70
7738;DHT22;29398;45.328;5.558;2024-03-25T00:58:30;6.90;90.50
7738;DHT22;29398;45.328;5.558;2024-03-25T00:59:31;6.90;91.70
7738;DHT22;29398;45.328;5.558;2024-03-25T01:01:34;6.80;86.20
7738;DHT22;29398;45.328;5.558;2024-03-25T01:02:36;6.80;86.70
7738;DHT22;29398;45.328;5.558;2024-03-25T01:03:38;6.80;86.80
7738;DHT22;29398;45.328;5.558;2024-03-25T01:04:39;6.80;86.20
7738;DHT22;29398;45.328;5.558;2024-03-25T01:05:41;6.80;86.20
7738;DHT22;29398;45.328;5.558;2024-03-25T01:06:43;6.80;86.20
7738;DHT22;29398;45.328;5.558;2024-03-25T01:07:44;6.80;86.60
7738;DHT22;29398;45.328;5.558;2024-03-25T01:08:46;6.90;86.60
7738;DHT22;29398;45.328;5.558;2024-03-25T01:09:47;6.90;86.40
7738;DHT22;29398;45.328;5.558;2024-03-25T01:10:49;6.90;86.30
7738;DHT22;29398;45.328;5.558;2024-03-25T01:11:50;6.90;86.20
7738;DHT22;29398;45.328;5.558;2024-03-25T01:12:52;7.00;86.30
7738;DHT22;29398;45.328;5.558;2024-03-25T01:13:53;7.00;86.00
7738;DHT22;29398;45.328;5.558;2024-03-25T01:14:54;7.00;86.10
7738;DHT22;29398;45.328;5.558;2024-03-25T01:15:55;7.00;86.10
7738;DHT22;29398;45.328;5.558;2024-03-25T01:16:57;7.00;86.30
7738;DHT22;29398;45.328;5.558;2024-03-25T01:17:58;6.90;85.60
7738;DHT22;29398;45.328;5.558;2024-03-25T01:18:59;7.00;86.50
7738;DHT22;29398;45.328;5.558;2024-03-25T01:20:00;7.00;86.30
7738;DHT22;29398;45.328;5.558;2024-03-25T01:21:03;7.00;86.30
7738;DHT22;29398;45.328;5.558;2024-03-25T01:22:06;7.00;85.80
7738;DHT22;29398;45.328;5.558;2024-03-25T01:23:07;6.90;85.40
7738;DHT22;29398;45.328;5.558;2024-03-25T01:24:09;6.90;85.30
7738;DHT22;29398;45.328;5.558;2024-03-25T01:25:11;6.90;85.50
7738;DHT22;29398;45.328;5.558;2024-03-25T01:26:12;6.80;85.90
7738;DHT22;29398;45.328;5.558;2024-03-25T01:27:13;6.80;86.00
7738;DHT22;29398;45.328;5.558;2024-03-25T01:28:14;6.70;86.30
7738;DHT22;29398;45.328;5.558;2024-03-25T01:29:16;6.70;85.90
7738;DHT22;29398;45.328;5.558;2024-03-25T01:30:19;6.70;86.30
7738;DHT22;29398;45.328;5.558;2024-03-25T01:31:20;6.70;86.40
7738;DHT22;29398;45.328;5.558;2024-03-25T01:32:22;6.60;86.70
7738;DHT22;29398;45.328;5.558;2024-03-25T01:33:23;6.60;86.90
7738;DHT22;29398;45.328;5.558;2024-03-25T01:34:25;6.70;87.00
7738;DHT22;29398;45.328;5.558;2024-03-25T01:35:26;6.70;87.00
7738;DHT22;29398;45.328;5.558;2024-03-25T01:36:29;6.70;86.90
7738;DHT22;29398;45.328;5.558;2024-03-25T01:37:31;6.70;86.60
7738;DHT22;29398;45.328;5.558;2024-03-25T01:38:33;6.80;86.50
7738;DHT22;29398;45.328;5.558;2024-03-25T01:39:34;6.80;86.30
7738;DHT22;29398;45.328;5.558;2024-03-25T01:40:38;6.80;86.20
7738;DHT22;29398;45.328;5.558;2024-03-25T01:41:39;6.80;86.30
7738;DHT22;29398;45.328;5.558;2024-03-25T01:42:40;6.80;86.40
7738;DHT22;29398;45.328;5.558;2024-03-25T01:43:41;6.90;86.60
7738;DHT22;29398;45.328;5.558;2024-03-25T01:44:44;6.90;86.50
7738;DHT22;29398;45.328;5.558;2024-03-25T01:45:45;6.80;86.00
7738;DHT22;29398;45.328;5.558;2024-03-25T01:46:46;6.80;85.80
7738;DHT22;29398;45.328;5.558;2024-03-25T01:47:47;6.80;86.30
7738;DHT22;29398;45.328;5.558;2024-03-25T01:48:50;6.80;86.50
7738;DHT22;29398;45.328;5.558;2024-03-25T01:49:53;6.80;86.70
7738;DHT22;29398;45.328;5.558;2024-03-25T01:50:56;6.80;86.50
7738;DHT22;29398;45.328;5.558;2024-03-25T01:51:59;6.80;86.40
7738;DHT22;29398;45.328;5.558;2024-03-25T01:53:03;6.90;86.60
7738;DHT22;29398;45.328;5.558;2024-03-25T01:54:04;6.90;86.20
7738;DHT22;29398;45.328;5.558;2024-03-25T01:55:10;6.90;86.40
7738;DHT22;29398;45.328;5.558;2024-03-25T01:56:14;6.90;86.10
7738;DHT22;29398;45.328;5.558;2024-03-25T01:57:17;7.00;86.50
7738;DHT22;29398;45.328;5.558;2024-03-25T01:58:18;6.90;85.60
7738;DHT22;29398;45.328;5.558;2024-03-25T01:59:19;6.90;85.50
7738;DHT22;29398;45.328;5.558;2024-03-25T02:00:20;6.90;85.90
7738;DHT22;29398;45.328;5.558;2024-03-25T02:01:25;6.90;86.10
7738;DHT22;29398;45.328;5.558;2024-03-25T02:02:26;6.90;86.00
7738;DHT22;29398;45.328;5.558;2024-03-25T02:03:28;7.00;86.10
7738;DHT22;29398;45.328;5.558;2024-03-25T02:04:29;7.00;85.90
7738;DHT22;29398;45.328;5.558;2024-03-25T02:05:31;7.00;86.00
7738;DHT22;29398;45.328;5.558;2024-03-25T02:06:33;6.90;86.20
7738;DHT22;29398;45.328;5.558;2024-03-25T02:07:36;6.80;85.60
7738;DHT22;29398;45.328;5.558;2024-03-25T02:08:39;6.80;86.00
7738;DHT22;29398;45.328;5.558;2024-03-25T02:09:42;6.80;86.30
7738;DHT22;29398;45.328;5.558;2024-03-25T02:10:43;6.80;86.30
7738;DHT22;29398;45.328;5.558;2024-03-25T02:11:44;6.80;86.00
7738;DHT22;29398;45.328;5.558;2024-03-25T02:12:47;6.80;86.30
7738;DHT22;29398;45.328;5.558;2024-03-25T02:13:50;6.80;86.30
7738;DHT22;29398;45.328;5.558;2024-03-25T02:14:51;6.80;86.60
7738;DHT22;29398;45.328;5.558;2024-03-25T02:15:52;6.70;86.60
7738;DHT22;29398;45.328;5.558;2024-03-25T02:16:55;6.70;86.30
7738;DHT22;29398;45.328;5.558;2024-03-25T02:17:56;6.70;86.40
7738;DHT22;29398;45.328;5.558;2024-03-25T02:18:57;6.70;86.50
7738;DHT22;29398;45.328;5.558;2024-03-25T02:19:58;6.70;86.40
7738;DHT22;29398;45.328;5.558;2024-03-25T02:21:01;6.70;86.50
7738;DHT22;29398;45.328;5.558;2024-03-25T02:22:02;6.70;86.60
7738;DHT22;29398;45.328;5.558;2024-03-25T02:23:04;6.70;86.40
7738;DHT22;29398;45.328;5.558;2024-03-25T02:24:09;6.70;86.70
7738;DHT22;29398;45.328;5.558;2024-03-25T02:25:14;6.70;86.50
7738;DHT22;29398;45.328;5.558;2024-03-25T02:26:18;6.60;86.70
7738;DHT22;29398;45.328;5.558;2024-03-25T02:27:19;6.70;87.70
7738;DHT22;29398;45.328;5.558;2024-03-25T02:28:21;6.70;87.10
7738;DHT22;29398;45.328;5.558;2024-03-25T02:29:23;6.70;87.20
7738;DHT22;29398;45.328;5.558;2024-03-25T02:30:24;6.70;86.90
7738;DHT22;29398;45.328;5.558;2024-03-25T02:31:25;6.70;86.90
7738;DHT22;29398;45.328;5.558;2024-03-25T02:32:26;6.70;87.20
7738;DHT22;29398;45.328;5.558;2024-03-25T02:33:30;6.70;87.00
7738;DHT22;29398;45.328;5.558;2024-03-25T02:34:31;6.70;87.40
7738;DHT22;29398;45.328;5.558;2024-03-25T02:35:32;6.60;87.30
7738;DHT22;29398;45.328;5.558;2024-03-25T02:36:33;6.60;87.70
7738;DHT22;29398;45.328;5.558;2024-03-25T02:37:36;6.60;87.70
7738;DHT22;29398;45.328;5.558;2024-03-25T02:38:38;6.60;87.90
7738;DHT22;29398;45.328;5.558;2024-03-25T02:39:39;6.60;88.30
7738;DHT22;29398;45.328;5.558;2024-03-25T02:40:40;6.60;88.40
7738;DHT22;29398;45.328;5.558;2024-03-25T02:41:44;6.60;88.50
7738;DHT22;29398;45.328;5.558;2024-03-25T02:42:45;6.60;88.50
7738;DHT22;29398;45.328;5.558;2024-03-25T02:43:47;6.60;88.30
7738;DHT22;29398;45.328;5.558;2024-03-25T02:44:49;6.50;88.60
7738;DHT22;29398;45.328;5.558;2024-03-25T02:45:50;6.60;88.40
7738;DHT22;29398;45.328;5.558;2024-03-25T02:46:52;6.60;88.50
7738;DHT22;29398;45.328;5.558;2024-03-25T02:47:53;6.60;88.90
7738;DHT22;29398;45.328;5.558;2024-03-25T02:48:55;6.60;88.40
7738;DHT22;29398;45.328;5.558;2024-03-25T02:49:56;6.60;88.70
7738;DHT22;29398;45.328;5.558;2024-03-25T02:50:57;6.60;89.30
7738;DHT22;29398;45.328;5.558;2024-03-25T02:51:58;6.50;88.70
7738;DHT22;29398;45.328;5.558;2024-03-25T02:53:00;6.50;88.80
7738;DHT22;29398;45.328;5.558;2024-03-25T02:54:01;6.50;88.80
7738;DHT22;29398;45.328;5.558;2024-03-25T02:55:06;6.50;89.10
7738;DHT22;29398;45.328;5.558;2024-03-25T02:56:07;6.50;88.90
7738;DHT22;29398;45.328;5.558;2024-03-25T02:57:10;6.60;89.00
7738;DHT22;29398;45.328;5.558;2024-03-25T02:58:11;6.60;89.20
7738;DHT22;29398;45.328;5.558;2024-03-25T02:59:12;6.60;88.90
7738;DHT22;29398;45.328;5.558;2024-03-25T03:00:14;6.60;88.90
7738;DHT22;29398;45.328;5.558;2024-03-25T03:01:16;6.60;88.70
7738;DHT22;29398;45.328;5.558;2024-03-25T03:02:17;6.60;88.60
7738;DHT22;29398;45.328;5.558;2024-03-25T03:03:18;6.60;89.10
7738;DHT22;29398;45.328;5.558;2024-03-25T03:04:19;6.60;88.60
7738;DHT22;29398;45.328;5.558;2024-03-25T03:05:22;6.60;88.20
7738;DHT22;29398;45.328;5.558;2024-03-25T03:06:23;6.50;88.80
7738;DHT22;29398;45.328;5.558;2024-03-25T03:07:24;6.50;89.10
7738;DHT22;29398;45.328;5.558;2024-03-25T03:08:26;6.50;88.80
7738;DHT22;29398;45.328;5.558;2024-03-25T03:09:27;6.40;88.40
7738;DHT22;29398;45.328;5.558;2024-03-25T03:10:28;6.50;88.70
7738;DHT22;29398;45.328;5.558;2024-03-25T03:11:29;6.50;88.60
7738;DHT22;29398;45.328;5.558;2024-03-25T03:12:31;6.50;88.70
7738;DHT22;29398;45.328;5.558;2024-03-25T03:13:33;6.50;88.60
7738;DHT22;29398;45.328;5.558;2024-03-25T03:14:34;6.50;89.00
7738;DHT22;29398;45.328;5.558;2024-03-25T03:15:35;6.50;88.60
7738;DHT22;29398;45.328;5.558;2024-03-25T03:16:36;6.50;88.90
7738;DHT22;29398;45.328;5.558;2024-03-25T03:17:38;6.40;88.20
7738;DHT22;29398;45.328;5.558;2024-03-25T03:18:40;6.40;88.60
7738;DHT22;29398;45.328;5.558;2024-03-25T03:19:41;6.80;88.60
7738;DHT22;29398;45.328;5.558;2024-03-25T03:20:42;6.40;88.80
7738;DHT22;29398;45.328;5.558;2024-03-25T03:21:44;6.40;88.70
7738;DHT22;29398;45.328;5.558;2024-03-25T03:22:45;6.40;88.70
7738;DHT22;29398;45.328;5.558;2024-03-25T03:23:46;6.40;88.70
7738;DHT22;29398;45.328;5.558;2024-03-25T03:24:48;6.40;89.10
7738;DHT22;29398;45.328;5.558;2024-03-25T03:25:50;6.40;88.90
7738;DHT22;29398;45.328;5.558;2024-03-25T03:26:51;6.40;89.00
7738;DHT22;29398;45.328;5.558;2024-03-25T03:27:53;6.40;89.00
7738;DHT22;29398;45.328;5.558;2024-03-25T03:28:54;6.50;89.10
7738;DHT22;29398;45.328;5.558;2024-03-25T03:29:56;6.40;88.90
7738;DHT22;29398;45.328;5.558;2024-03-25T03:30:57;6.40;89.00
7738;DHT22;29398;45.328;5.558;2024-03-25T03:31:58;6.50;89.10
7738;DHT22;29398;45.328;5.558;2024-03-25T03:33:00;6.40;89.00
7738;DHT22;29398;45.328;5.558;2024-03-25T03:34:02;6.40;89.10
7738;DHT22;29398;45.328;5.558;2024-03-25T03:35:04;6.30;89.10
7738;DHT22;29398;45.328;5.558;2024-03-25T03:36:06;6.30;89.50
7738;DHT22;29398;45.328;5.558;2024-03-25T03:37:07;6.30;89.50
7738;DHT22;29398;45.328;5.558;2024-03-25T03:38:09;6.30;89.60
7738;DHT22;29398;45.328;5.558;2024-03-25T03:39:10;6.40;89.60
7738;DHT22;29398;45.328;5.558;2024-03-25T03:40:11;6.40;89.40
7738;DHT22;29398;45.328;5.558;2024-03-25T03:41:13;6.40;89.20
7738;DHT22;29398;45.328;5.558;2024-03-25T03:42:15;6.40;89.40
7738;DHT22;29398;45.328;5.558;2024-03-25T03:43:17;6.40;89.50
7738;DHT22;29398;45.328;5.558;2024-03-25T03:44:18;6.30;89.50
7738;DHT22;29398;45.328;5.558;2024-03-25T03:45:19;6.30;89.70
7738;DHT22;29398;45.328;5.558;2024-03-25T03:46:21;6.30;89.80
7738;DHT22;29398;45.328;5.558;2024-03-25T03:47:22;6.30;89.60
7738;DHT22;29398;45.328;5.558;2024-03-25T03:48:23;6.30;89.80
7738;DHT22;29398;45.328;5.558;2024-03-25T03:49:24;6.40;89.70
7738;DHT22;29398;45.328;5.558;2024-03-25T03:50:26;6.40;89.50
7738;DHT22;29398;45.328;5.558;2024-03-25T03:51:27;6.40;89.30
7738;DHT22;29398;45.328;5.558;2024-03-25T03:52:28;6.40;89.00
7738;DHT22;29398;45.328;5.558;2024-03-25T03:53:29;6.30;88.90
7738;DHT22;29398;45.328;5.558;2024-03-25T03:54:31;6.30;89.10
7738;DHT22;29398;45.328;5.558;2024-03-25T03:55:32;6.30;89.20
7738;DHT22;29398;45.328;5.558;2024-03-25T03:56:33;6.30;89.10
7738;DHT22;29398;45.328;5.558;2024-03-25T03:57:35;6.30;89.20
7738;DHT22;29398;45.328;5.558;2024-03-25T03:58:38;6.30;89.00
7738;DHT22;29398;45.328;5.558;2024-03-25T03:59:39;6.30;89.00
7738;DHT22;29398;45.328;5.558;2024-03-25T04:00:41;6.30;89.00
7738;DHT22;29398;45.328;5.558;2024-03-25T04:01:43;6.30;88.80
7738;DHT22;29398;45.328;5.558;2024-03-25T04:02:44;6.30;88.80
7738;DHT22;29398;45.328;5.558;2024-03-25T04:03:45;6.30;88.60
7738;DHT22;29398;45.328;5.558;2024-03-25T04:04:46;6.30;88.70
7738;DHT22;29398;45.328;5.558;2024-03-25T04:05:48;6.20;88.50
7738;DHT22;29398;45.328;5.558;2024-03-25T04:06:49;6.20;88.90
7738;DHT22;29398;45.328;5.558;2024-03-25T04:07:50;6.30;88.70
7738;DHT22;29398;45.328;5.558;2024-03-25T04:08:51;6.30;89.40
7738;DHT22;29398;45.328;5.558;2024-03-25T04:09:53;6.30;88.80
7738;DHT22;29398;45.328;5.558;2024-03-25T04:10:54;6.30;88.60
7738;DHT22;29398;45.328;5.558;2024-03-25T04:11:55;6.30;88.60
7738;DHT22;29398;45.328;5.558;2024-03-25T04:12:57;6.30;88.70
7738;DHT22;29398;45.328;5.558;2024-03-25T04:14:00;6.30;88.80
7738;DHT22;29398;45.328;5.558;2024-03-25T04:15:01;6.30;88.60
7738;DHT22;29398;45.328;5.558;2024-03-25T04:16:04;6.30;88.40
7738;DHT22;29398;45.328;5.558;2024-03-25T04:17:05;6.30;88.60
7738;DHT22;29398;45.328;5.558;2024-03-25T04:18:08;6.30;88.80
7738;DHT22;29398;45.328;5.558;2024-03-25T04:19:09;6.20;88.60
7738;DHT22;29398;45.328;5.558;2024-03-25T04:20:11;6.20;88.70
7738;DHT22;29398;45.328;5.558;2024-03-25T04:21:12;6.20;88.60
7738;DHT22;29398;45.328;5.558;2024-03-25T04:22:14;6.20;88.50
7738;DHT22;29398;45.328;5.558;2024-03-25T04:23:15;6.10;88.80
7738;DHT22;29398;45.328;5.558;2024-03-25T04:24:17;6.10;89.10
7738;DHT22;29398;45.328;5.558;2024-03-25T04:25:19;6.10;89.20
7738;DHT22;29398;45.328;5.558;2024-03-25T04:26:20;6.10;89.20
7738;DHT22;29398;45.328;5.558;2024-03-25T04:27:21;6.10;89.30
7738;DHT22;29398;45.328;5.558;2024-03-25T04:28:25;6.10;89.30
7738;DHT22;29398;45.328;5.558;2024-03-25T04:29:28;6.10;89.30
7738;DHT22;29398;45.328;5.558;2024-03-25T04:30:30;6.10;89.40
7738;DHT22;29398;45.328;5.558;2024-03-25T04:31:31;6.10;89.10
7738;DHT22;29398;45.328;5.558;2024-03-25T04:32:32;6.10;89.10
7738;DHT22;29398;45.328;5.558;2024-03-25T04:33:33;6.10;89.30
7738;DHT22;29398;45.328;5.558;2024-03-25T04:34:35;6.10;89.10
7738;DHT22;29398;45.328;5.558;2024-03-25T04:35:36;6.20;89.10
7738;DHT22;29398;45.328;5.558;2024-03-25T04:36:37;6.20;89.00
7738;DHT22;29398;45.328;5.558;2024-03-25T04:37:39;6.20;89.00
7738;DHT22;29398;45.328;5.558;2024-03-25T04:38:40;6.20;88.80
7738;DHT22;29398;45.328;5.558;2024-03-25T04:39:41;6.20;88.60
7738;DHT22;29398;45.328;5.558;2024-03-25T04:40:42;6.20;88.70
7738;DHT22;29398;45.328;5.558;2024-03-25T04:41:43;6.20;88.30
7738;DHT22;29398;45.328;5.558;2024-03-25T04:42:44;6.10;88.60
7738;DHT22;29398;45.328;5.558;2024-03-25T04:43:45;6.10;89.00
7738;DHT22;29398;45.328;5.558;2024-03-25T04:44:48;6.10;89.20
7738;DHT22;29398;45.328;5.558;2024-03-25T04:45:49;6.10;89.30
7738;DHT22;29398;45.328;5.558;2024-03-25T04:46:50;6.10;89.20
7738;DHT22;29398;45.328;5.558;2024-03-25T04:47:51;6.00;89.10
7738;DHT22;29398;45.328;5.558;2024-03-25T04:48:52;6.10;88.90
7738;DHT22;29398;45.328;5.558;2024-03-25T04:49:54;6.00;89.30
7738;DHT22;29398;45.328;5.558;2024-03-25T04:50:55;6.00;89.60
7738;DHT22;29398;45.328;5.558;2024-03-25T04:51:56;6.00;89.10
7738;DHT22;29398;45.328;5.558;2024-03-25T04:52:57;6.00;89.10
7738;DHT22;29398;45.328;5.558;2024-03-25T04:53:58;6.00;89.20
7738;DHT22;29398;45.328;5.558;2024-03-25T04:54:59;6.00;89.00
7738;DHT22;29398;45.328;5.558;2024-03-25T04:56:01;6.00;88.50
7738;DHT22;29398;45.328;5.558;2024-03-25T04:57:02;6.00;88.80
7738;DHT22;29398;45.328;5.558;2024-03-25T04:58:03;6.00;88.90
7738;DHT22;29398;45.328;5.558;2024-03-25T04:59:04;6.00;88.80
7738;DHT22;29398;45.328;5.558;2024-03-25T05:00:08;6.00;88.90
7738;DHT22;29398;45.328;5.558;2024-03-25T05:01:11;6.00;89.20
7738;DHT22;29398;45.328;5.558;2024-03-25T05:02:12;6.00;88.70
7738;DHT22;29398;45.328;5.558;2024-03-25T05:03:13;6.00;88.90
7738;DHT22;29398;45.328;5.558;2024-03-25T05:04:14;6.00;88.90
7738;DHT22;29398;45.328;5.558;2024-03-25T05:05:15;6.00;88.60
7738;DHT22;29398;45.328;5.558;2024-03-25T05:06:17;6.00;88.90
7738;DHT22;29398;45.328;5.558;2024-03-25T05:07:18;6.00;88.80
7738;DHT22;29398;45.328;5.558;2024-03-25T05:08:19;6.00;88.70
7738;DHT22;29398;45.328;5.558;2024-03-25T05:09:20;5.90;88.70
7738;DHT22;29398;45.328;5.558;2024-03-25T05:10:21;6.00;88.70
7738;DHT22;29398;45.328;5.558;2024-03-25T05:11:22;6.00;88.60
7738;DHT22;29398;45.328;5.558;2024-03-25T05:12:23;6.00;88.40
7738;DHT22;29398;45.328;5.558;2024-03-25T05:13:24;6.00;88.70
7738;DHT22;29398;45.328;5.558;2024-03-25T05:14:26;6.00;88.90
7738;DHT22;29398;45.328;5.558;2024-03-25T05:15:28;6.00;88.90
7738;DHT22;29398;45.328;5.558;2024-03-25T05:16:29;6.00;88.80
7738;DHT22;29398;45.328;5.558;2024-03-25T05:17:30;6.00;88.70
7738;DHT22;29398;45.328;5.558;2024-03-25T05:18:31;6.00;89.00
7738;DHT22;29398;45.328;5.558;2024-03-25T05:19:32;6.00;88.90
7738;DHT22;29398;45.328;5.558;2024-03-25T05:20:34;6.00;88.80
7738;DHT22;29398;45.328;5.558;2024-03-25T05:21:35;6.10;88.80
7738;DHT22;29398;45.328;5.558;2024-03-25T05:22:36;6.00;88.70
7738;DHT22;29398;45.328;5.558;2024-03-25T05:23:37;6.00;88.70
7738;DHT22;29398;45.328;5.558;2024-03-25T05:24:38;6.00;88.80
7738;DHT22;29398;45.328;5.558;2024-03-25T05:25:39;6.00;89.00
7738;DHT22;29398;45.328;5.558;2024-03-25T05:26:40;6.00;89.00
7738;DHT22;29398;45.328;5.558;2024-03-25T05:27:41;6.00;88.80
7738;DHT22;29398;45.328;5.558;2024-03-25T05:28:42;5.90;88.80
7738;DHT22;29398;45.328;5.558;2024-03-25T05:29:44;5.90;88.70
7738;DHT22;29398;45.328;5.558;2024-03-25T05:30:46;5.90;88.90
7738;DHT22;29398;45.328;5.558;2024-03-25T05:31:56;5.90;89.00
7738;DHT22;29398;45.328;5.558;2024-03-25T05:32:57;5.90;89.10
7738;DHT22;29398;45.328;5.558;2024-03-25T05:33:59;5.90;89.10
7738;DHT22;29398;45.328;5.558;2024-03-25T05:35:00;5.90;89.10
7738;DHT22;29398;45.328;5.558;2024-03-25T05:36:01;5.90;89.00
7738;DHT22;29398;45.328;5.558;2024-03-25T05:37:03;5.90;89.30
7738;DHT22;29398;45.328;5.558;2024-03-25T05:38:04;5.90;89.20
7738;DHT22;29398;45.328;5.558;2024-03-25T05:39:05;5.90;88.90
7738;DHT22;29398;45.328;5.558;2024-03-25T05:40:08;5.80;88.70
7738;DHT22;29398;45.328;5.558;2024-03-25T05:41:10;5.80;89.20
7738;DHT22;29398;45.328;5.558;2024-03-25T05:42:11;5.80;88.70
7738;DHT22;29398;45.328;5.558;2024-03-25T05:43:12;5.80;88.50
7738;DHT22;29398;45.328;5.558;2024-03-25T05:44:13;5.80;88.50
7738;DHT22;29398;45.328;5.558;2024-03-25T05:45:15;5.80;88.40
7738;DHT22;29398;45.328;5.558;2024-03-25T05:46:17;5.80;88.20
7738;DHT22;29398;45.328;5.558;2024-03-25T05:47:18;5.80;88.10
7738;DHT22;29398;45.328;5.558;2024-03-25T05:48:19;5.80;88.30
7738;DHT22;29398;45.328;5.558;2024-03-25T05:49:21;5.80;88.00
7738;DHT22;29398;45.328;5.558;2024-03-25T05:50:22;5.80;88.00
7738;DHT22;29398;45.328;5.558;2024-03-25T05:51:23;5.80;88.10
7738;DHT22;29398;45.328;5.558;2024-03-25T05:52:24;5.90;88.50
7738;DHT22;29398;45.328;5.558;2024-03-25T05:53:29;5.80;87.90
7738;DHT22;29398;45.328;5.558;2024-03-25T05:54:30;5.90;88.10
7738;DHT22;29398;45.328;5.558;2024-03-25T05:55:31;5.90;88.00
7738;DHT22;29398;45.328;5.558;2024-03-25T05:56:32;5.90;87.60
7738;DHT22;29398;45.328;5.558;2024-03-25T05:57:33;5.80;87.70
7738;DHT22;29398;45.328;5.558;2024-03-25T05:58:35;5.80;87.60
7738;DHT22;29398;45.328;5.558;2024-03-25T05:59:36;5.80;87.50
7738;DHT22;29398;45.328;5.558;2024-03-25T06:00:37;5.80;87.60
7738;DHT22;29398;45.328;5.558;2024-03-25T06:01:39;5.70;87.70
7738;DHT22;29398;45.328;5.558;2024-03-25T06:02:40;5.70;87.90
7738;DHT22;29398;45.328;5.558;2024-03-25T06:03:41;5.70;87.60
7738;DHT22;29398;45.328;5.558;2024-03-25T06:04:42;5.70;87.60
7738;DHT22;29398;45.328;5.558;2024-03-25T06:05:44;5.70;87.80
7738;DHT22;29398;45.328;5.558;2024-03-25T06:06:45;5.70;88.00
7738;DHT22;29398;45.328;5.558;2024-03-25T06:07:46;5.70;87.80
7738;DHT22;29398;45.328;5.558;2024-03-25T06:08:47;5.80;87.80
7738;DHT22;29398;45.328;5.558;2024-03-25T06:09:48;5.80;87.70
7738;DHT22;29398;45.328;5.558;2024-03-25T06:10:49;5.80;87.60
7738;DHT22;29398;45.328;5.558;2024-03-25T06:11:51;5.80;87.30
7738;DHT22;29398;45.328;5.558;2024-03-25T06:12:52;5.80;87.40
7738;DHT22;29398;45.328;5.558;2024-03-25T06:13:53;5.80;87.70
7738;DHT22;29398;45.328;5.558;2024-03-25T06:14:54;5.70;87.30
7738;DHT22;29398;45.328;5.558;2024-03-25T06:15:55;5.80;87.60
7738;DHT22;29398;45.328;5.558;2024-03-25T06:16:57;5.80;87.70
7738;DHT22;29398;45.328;5.558;2024-03-25T06:17:58;5.80;87.60
7738;DHT22;29398;45.328;5.558;2024-03-25T06:19:00;5.80;87.50
7738;DHT22;29398;45.328;5.558;2024-03-25T06:20:01;5.90;87.70
7738;DHT22;29398;45.328;5.558;2024-03-25T06:21:02;5.90;87.50
7738;DHT22;29398;45.328;5.558;2024-03-25T06:22:04;5.90;87.90
7738;DHT22;29398;45.328;5.558;2024-03-25T06:23:05;5.90;88.20
7738;DHT22;29398;45.328;5.558;2024-03-25T06:24:06;5.90;87.70
7738;DHT22;29398;45.328;5.558;2024-03-25T06:25:08;5.90;87.30
7738;DHT22;29398;45.328;5.558;2024-03-25T06:26:09;5.90;87.50
7738;DHT22;29398;45.328;5.558;2024-03-25T06:27:10;5.90;87.80
7738;DHT22;29398;45.328;5.558;2024-03-25T06:28:11;5.90;87.70
7738;DHT22;29398;45.328;5.558;2024-03-25T06:29:13;5.90;87.10
7738;DHT22;29398;45.328;5.558;2024-03-25T06:30:14;5.90;87.00
7738;DHT22;29398;45.328;5.558;2024-03-25T06:31:33;5.90;87.30
7738;DHT22;29398;45.328;5.558;2024-03-25T06:32:54;5.90;87.30
7738;DHT22;29398;45.328;5.558;2024-03-25T06:34:14;5.90;87.50
7738;DHT22;29398;45.328;5.558;2024-03-25T06:35:15;6.00;87.50
7738;DHT22;29398;45.328;5.558;2024-03-25T06:36:16;6.00;87.90
7738;DHT22;29398;45.328;5.558;2024-03-25T06:37:18;6.00;87.40
7738;DHT22;29398;45.328;5.558;2024-03-25T06:38:19;6.10;87.50
7738;DHT22;29398;45.328;5.558;2024-03-25T06:39:20;6.10;87.50
7738;DHT22;29398;45.328;5.558;2024-03-25T06:40:22;6.10;86.80
7738;DHT22;29398;45.328;5.558;2024-03-25T06:41:24;6.10;87.70
7738;DHT22;29398;45.328;5.558;2024-03-25T06:42:25;6.10;87.40
7738;DHT22;29398;45.328;5.558;2024-03-25T06:43:26;6.10;86.30
7738;DHT22;29398;45.328;5.558;2024-03-25T06:44:27;6.10;86.70
7738;DHT22;29398;45.328;5.558;2024-03-25T06:45:28;6.20;87.00
7738;DHT22;29398;45.328;5.558;2024-03-25T06:46:30;6.20;86.80